createdAt,value
2017-10-30T04:31:22.785Z,22.62
2017-10-30T04:33:50.358Z,21.12
2017-10-30T04:36:17.974Z,18.67
2017-10-30T04:38:45.649Z,22.52
2017-10-30T04:41:13.991Z,18.90
2017-10-30T04:43:41.782Z,22.58
2017-10-30T04:46:10.154Z,23.23
2017-10-30T04:48:37.842Z,21.05
2017-10-30T04:51:05.593Z,22.48
2017-10-30T04:53:33.938Z,16.25
2017-10-30T04:56:02.342Z,15.27
2017-10-30T04:58:30.705Z,22.58
2017-10-30T05:00:58.381Z,11.35
2017-10-30T05:03:26.729Z,30.67
2017-10-30T05:05:54.314Z,21.55
2017-10-30T05:08:22.699Z,23.70
2017-10-30T05:10:51.071Z,22.85
2017-10-30T05:13:19.426Z,16.37
2017-10-30T05:15:48.545Z,13.13
2017-10-30T05:18:16.913Z,15.27
2017-10-30T05:20:45.294Z,19.58
2017-10-30T05:23:13.770Z,18.15
2017-10-30T05:25:42.150Z,27.70
2017-10-30T05:28:10.526Z,16.73
2017-10-30T05:30:39.114Z,20.35
2017-10-30T05:33:07.490Z,27.92
2017-10-30T05:35:35.874Z,17.30
2017-10-30T05:38:04.253Z,33.25
2017-10-30T05:40:32.593Z,12.48
2017-10-30T05:43:00.174Z,14.57
2017-10-30T05:45:28.554Z,16.30
2017-10-30T05:47:56.938Z,17.58
2017-10-30T05:50:25.314Z,20.90
2017-10-30T05:52:53.786Z,22.45
2017-10-30T05:55:22.125Z,19.65
2017-10-30T05:57:49.701Z,18.02
2017-10-30T06:00:17.334Z,19.90
2017-10-30T06:02:44.909Z,19.92
2017-10-30T06:05:12.498Z,14.07
2017-10-30T06:07:40.864Z,24.35
2017-10-30T06:10:08.442Z,21.85
2017-10-30T06:12:36.779Z,16.02
2017-10-30T06:15:04.399Z,15.07
2017-10-30T06:17:32.035Z,28.30
2017-10-30T06:20:00.382Z,11.98
2017-10-30T06:22:28.071Z,14.23
2017-10-30T06:24:56.450Z,25.77
2017-10-30T06:27:24.822Z,11.80
2017-10-30T06:29:53.218Z,9.90
2017-10-30T06:32:20.803Z,12.70
2017-10-30T06:34:48.421Z,31.85
2017-10-30T06:37:16.822Z,24.45
2017-10-30T06:39:44.397Z,16.08
2017-10-30T06:42:11.971Z,16.20
2017-10-30T06:44:39.774Z,21.15
2017-10-30T06:47:07.368Z,17.33
2017-10-30T06:49:34.949Z,23.25
2017-10-30T06:52:02.634Z,17.05
2017-10-30T06:54:30.210Z,18.37
2017-10-30T06:56:57.791Z,15.88
2017-10-30T06:59:25.438Z,15.60
2017-10-30T07:01:53.819Z,21.95
2017-10-30T07:04:22.167Z,20.80
2017-10-30T07:06:49.846Z,17.05
2017-10-30T07:09:18.200Z,17.20
2017-10-30T07:11:45.784Z,20.65
2017-10-30T07:14:14.181Z,18.25
2017-10-30T07:16:41.822Z,22.60
2017-10-30T07:19:10.161Z,25.23
2017-10-30T07:21:37.866Z,12.15
2017-10-30T07:24:06.225Z,25.77
2017-10-30T07:26:33.798Z,24.02
2017-10-30T07:29:02.197Z,19.98
2017-10-30T07:31:29.790Z,18.92
2017-10-30T07:33:57.371Z,16.55
2017-10-30T07:36:24.973Z,16.50
2017-10-30T07:38:52.614Z,7.97
2017-10-30T07:41:21.090Z,28.00
2017-10-30T07:43:49.434Z,15.88
2017-10-30T07:46:17.037Z,21.55
2017-10-30T07:48:45.434Z,16.35
2017-10-30T07:51:13.071Z,19.37
2017-10-30T07:53:41.418Z,20.50
2017-10-30T07:56:09.098Z,19.15
2017-10-30T07:58:37.485Z,18.65
2017-10-30T08:01:05.826Z,23.35
2017-10-30T08:03:33.523Z,18.23
2017-10-30T08:06:01.868Z,30.73
2017-10-30T08:08:29.514Z,18.37
2017-10-30T08:10:57.093Z,15.23
2017-10-30T08:13:24.674Z,14.82
2017-10-30T08:15:53.155Z,16.95
2017-10-30T08:18:21.534Z,14.65
2017-10-30T08:20:49.902Z,25.83
2017-10-30T08:23:18.298Z,16.37
2017-10-30T08:25:45.876Z,30.27
2017-10-30T08:28:13.498Z,25.92
2017-10-30T08:30:41.982Z,14.65
2017-10-30T08:33:10.354Z,19.67
2017-10-30T08:35:38.730Z,13.20
2017-10-30T08:38:07.099Z,12.18
2017-10-30T08:40:35.458Z,25.62
2017-10-30T08:43:03.038Z,17.40
2017-10-30T08:45:30.638Z,22.58
2017-10-30T08:47:58.265Z,22.67
2017-10-30T08:50:26.745Z,10.10
2017-10-30T08:52:55.090Z,16.48
2017-10-30T08:55:22.666Z,20.05
2017-10-30T08:57:50.287Z,19.50
2017-10-30T09:00:17.870Z,23.70
2017-10-30T09:02:45.450Z,14.13
2017-10-30T09:05:13.118Z,12.37
2017-10-30T09:07:41.466Z,23.52
2017-10-30T09:10:09.053Z,14.65
2017-10-30T09:12:37.451Z,20.50
2017-10-30T09:15:05.090Z,14.77
2017-10-30T09:17:33.434Z,12.55
2017-10-30T09:20:01.038Z,14.98
2017-10-30T09:22:29.387Z,13.77
2017-10-30T09:24:57.023Z,20.37
2017-10-30T09:27:24.606Z,14.57
2017-10-30T09:29:52.186Z,12.10
2017-10-30T09:32:20.571Z,9.88
2017-10-30T09:34:48.217Z,12.23
2017-10-30T09:37:16.564Z,14.70
2017-10-30T09:39:44.165Z,12.32
2017-10-30T09:42:12.502Z,17.25
2017-10-30T09:44:40.155Z,18.20
2017-10-30T09:47:07.742Z,11.93
2017-10-30T09:49:35.317Z,10.52
2017-10-30T09:52:03.685Z,15.23
2017-10-30T09:54:32.057Z,10.25
2017-10-30T09:57:00.567Z,17.05
2017-10-30T09:59:28.202Z,15.18
2017-10-30T10:01:56.553Z,14.50
2017-10-30T10:04:24.202Z,8.43
2017-10-30T10:06:51.799Z,9.48
2017-10-30T10:09:20.137Z,8.23
2017-10-30T10:11:47.838Z,9.20
2017-10-30T10:14:16.214Z,11.55
2017-10-30T10:16:44.565Z,12.15
2017-10-30T10:19:13.069Z,8.77
2017-10-30T10:21:41.420Z,13.57
2017-10-30T10:24:09.160Z,14.15
2017-10-30T10:26:36.865Z,11.27
2017-10-30T10:29:05.210Z,6.97
2017-10-30T10:31:32.792Z,19.67
2017-10-30T10:34:01.186Z,9.15
2017-10-30T10:36:29.540Z,13.30
2017-10-30T10:38:57.123Z,10.18
2017-10-30T10:41:25.602Z,8.77
2017-10-30T10:43:53.976Z,11.12
2017-10-30T10:46:22.322Z,12.95
2017-10-30T10:48:49.925Z,6.60
2017-10-30T10:51:18.266Z,9.80
2017-10-30T10:53:45.899Z,7.32
2017-10-30T10:56:13.534Z,6.35
2017-10-30T10:58:41.115Z,8.48
2017-10-30T11:01:08.689Z,8.13
2017-10-30T11:03:36.293Z,8.63
2017-10-30T11:06:04.638Z,4.65
2017-10-30T11:08:32.324Z,17.73
2017-10-30T11:11:00.666Z,8.55
2017-10-30T11:13:28.266Z,13.15
2017-10-30T11:15:56.734Z,6.28
2017-10-30T11:18:25.165Z,7.82
2017-10-30T11:20:52.742Z,9.23
2017-10-30T11:23:20.429Z,3.92
2017-10-30T11:25:48.008Z,3.35
2017-10-30T11:28:16.341Z,9.05
2017-10-30T11:30:44.140Z,4.68
2017-10-30T11:33:12.491Z,4.68
2017-10-30T11:35:40.890Z,7.32
2017-10-30T11:38:09.288Z,5.40
2017-10-30T11:40:36.975Z,10.00
2017-10-30T11:43:04.550Z,4.62
2017-10-30T11:45:32.174Z,6.50
2017-10-30T11:47:59.811Z,7.47
2017-10-30T11:50:28.154Z,4.93
2017-10-30T11:52:55.846Z,3.10
2017-10-30T11:55:24.186Z,8.75
2017-10-30T11:57:51.782Z,5.53
2017-10-30T12:00:20.254Z,12.40
2017-10-30T12:02:48.636Z,5.45
2017-10-30T12:05:16.983Z,4.30
2017-10-30T12:07:44.623Z,4.72
2017-10-30T12:10:12.329Z,9.52
2017-10-30T12:12:40.682Z,6.70
2017-10-30T12:15:08.258Z,1.40
2017-10-30T12:17:35.857Z,5.78
2017-10-30T12:20:03.641Z,4.15
2017-10-30T12:22:31.256Z,3.15
2017-10-30T12:24:59.639Z,4.68
2017-10-30T12:27:27.978Z,4.60
2017-10-30T12:29:55.568Z,2.65
2017-10-30T12:32:23.948Z,4.62
2017-10-30T12:34:52.317Z,5.10
2017-10-30T12:37:20.795Z,7.12
2017-10-30T12:39:49.170Z,3.95
2017-10-30T12:42:17.522Z,4.87
2017-10-30T12:44:45.127Z,4.40
2017-10-30T12:47:12.773Z,2.30
2017-10-30T12:49:41.154Z,5.87
2017-10-30T12:52:09.523Z,5.07
2017-10-30T12:54:37.866Z,2.80
2017-10-30T12:57:05.462Z,4.93
2017-10-30T12:59:33.838Z,3.67
2017-10-30T13:02:02.214Z,6.30
2017-10-30T13:04:30.562Z,5.20
2017-10-30T13:06:58.261Z,4.05
2017-10-30T13:09:26.647Z,10.48
2017-10-30T13:11:54.444Z,4.50
2017-10-30T13:14:22.051Z,9.73
2017-10-30T13:16:50.397Z,3.95
2017-10-30T13:19:18.946Z,3.62
2017-10-30T13:21:46.535Z,3.00
2017-10-30T13:24:14.109Z,2.30
2017-10-30T13:26:41.790Z,3.17
2017-10-30T13:29:10.135Z,4.75
2017-10-30T13:31:37.714Z,3.10
2017-10-30T13:34:05.314Z,6.10
2017-10-30T13:36:32.886Z,7.75
2017-10-30T13:39:00.466Z,7.43
2017-10-30T13:41:28.090Z,2.58
2017-10-30T13:43:55.678Z,5.37
2017-10-30T13:46:23.251Z,8.07
2017-10-30T13:48:50.986Z,4.18
2017-10-30T13:51:18.563Z,4.47
2017-10-30T13:53:46.150Z,3.95
2017-10-30T13:56:14.525Z,4.12
2017-10-30T13:58:42.098Z,6.50
2017-10-30T14:01:10.435Z,7.47
2017-10-30T14:03:38.061Z,5.75
2017-10-30T14:06:05.630Z,5.78
2017-10-30T14:08:33.202Z,6.12
2017-10-30T14:11:00.806Z,12.90
2017-10-30T14:13:29.182Z,4.53
2017-10-30T14:15:57.567Z,5.25
2017-10-30T14:18:25.938Z,2.85
2017-10-30T14:20:54.278Z,9.48
2017-10-30T14:23:21.878Z,1.98
2017-10-30T14:25:50.240Z,14.02
2017-10-30T14:28:17.823Z,4.57
2017-10-30T14:30:45.398Z,4.47
2017-10-30T14:33:13.130Z,5.68
2017-10-30T14:35:41.478Z,5.93
2017-10-30T14:38:09.071Z,5.90
2017-10-30T14:40:36.837Z,4.03
2017-10-30T14:43:05.203Z,6.43
2017-10-30T14:45:33.546Z,7.12
2017-10-30T14:48:01.163Z,2.53
2017-10-30T14:50:28.744Z,13.95
2017-10-30T14:52:56.325Z,8.93
2017-10-30T14:55:24.017Z,8.77
2017-10-30T14:57:52.361Z,4.10
2017-10-30T15:00:19.999Z,11.15
2017-10-30T15:02:47.575Z,4.03
2017-10-30T15:05:15.152Z,4.60
2017-10-30T15:07:42.760Z,3.42
2017-10-30T15:10:10.333Z,7.47
2017-10-30T15:12:37.905Z,4.22
2017-10-30T15:15:05.531Z,3.08
2017-10-30T15:17:33.111Z,3.33
2017-10-30T15:20:00.695Z,4.32
2017-10-30T15:22:28.383Z,6.60
2017-10-30T15:24:56.735Z,5.90
2017-10-30T15:27:24.406Z,14.57
2017-10-30T15:29:52.078Z,8.98
2017-10-30T15:32:20.462Z,5.30
2017-10-30T15:34:48.855Z,4.43
2017-10-30T15:37:16.514Z,13.10
2017-10-30T15:39:44.085Z,6.40
2017-10-30T15:42:11.690Z,5.95
2017-10-30T15:44:39.373Z,13.15
2017-10-30T15:47:07.763Z,17.30
2017-10-30T15:49:35.342Z,7.62
2017-10-30T15:52:02.942Z,12.00
2017-10-30T15:54:30.553Z,16.48
2017-10-30T15:56:58.131Z,13.98
2017-10-30T15:59:25.745Z,8.15
2017-10-30T16:01:54.135Z,10.52
2017-10-30T16:04:22.474Z,4.65
2017-10-30T16:06:50.046Z,6.35
2017-10-30T16:09:17.658Z,14.90
2017-10-30T16:11:45.233Z,21.37
2017-10-30T16:14:12.814Z,15.48
2017-10-30T16:16:41.920Z,4.50
2017-10-30T16:19:10.310Z,8.30
2017-10-30T16:21:38.671Z,8.15
2017-10-30T16:24:06.279Z,10.38
2017-10-30T16:26:33.867Z,11.85
2017-10-30T16:29:01.450Z,12.90
2017-10-30T16:31:29.126Z,11.15
2017-10-30T16:33:57.470Z,7.87
2017-10-30T16:36:25.057Z,7.32
2017-10-30T16:38:53.445Z,8.45
2017-10-30T16:41:21.795Z,5.80
2017-10-30T16:43:49.370Z,14.73
2017-10-30T16:46:17.781Z,9.70
2017-10-30T16:48:45.363Z,10.30
2017-10-30T16:51:12.941Z,13.88
2017-10-30T16:53:40.570Z,10.35
2017-10-30T16:56:08.151Z,10.48
2017-10-30T16:58:35.727Z,8.35
2017-10-30T17:01:03.333Z,21.42
2017-10-30T17:03:30.957Z,8.82
2017-10-30T17:05:59.350Z,10.32
2017-10-30T17:08:27.698Z,10.20
2017-10-30T17:10:55.273Z,13.62
2017-10-30T17:13:23.765Z,14.43
2017-10-30T17:15:52.186Z,10.35
2017-10-30T17:18:19.797Z,8.80
2017-10-30T17:20:47.442Z,15.80
2017-10-30T17:23:15.024Z,9.73
2017-10-30T17:25:42.610Z,12.93
2017-10-30T17:28:10.224Z,9.57
2017-10-30T17:30:38.570Z,13.13
2017-10-30T17:33:06.170Z,9.20
2017-10-30T17:35:34.563Z,12.45
2017-10-30T17:38:02.142Z,13.07
2017-10-30T17:40:29.731Z,13.35
2017-10-30T17:42:57.338Z,17.85
2017-10-30T17:45:24.930Z,18.15
2017-10-30T17:47:52.530Z,18.10
2017-10-30T17:50:20.203Z,22.75
2017-10-30T17:52:48.581Z,35.28
2017-10-30T17:55:17.054Z,27.33
2017-10-30T17:57:45.486Z,36.05
2017-10-30T18:00:13.066Z,26.20
2017-10-30T18:02:40.686Z,28.00
2017-10-30T18:05:08.266Z,26.27
2017-10-30T18:07:35.873Z,22.17
2017-10-30T18:10:04.254Z,26.20
2017-10-30T18:12:32.600Z,32.28
2017-10-30T18:15:00.188Z,23.67
2017-10-30T18:17:27.830Z,23.50
2017-10-30T18:19:55.506Z,26.90
2017-10-30T18:22:26.661Z,24.25
2017-10-30T18:24:54.285Z,28.17
2017-10-30T18:27:21.970Z,20.58
2017-10-30T18:29:50.346Z,27.10
2017-10-30T18:32:18.819Z,26.17
2017-10-30T18:34:47.209Z,26.48
2017-10-30T18:37:15.562Z,26.10
2017-10-30T18:39:43.243Z,33.20
2017-10-30T18:42:11.620Z,25.50
2017-10-30T18:44:39.969Z,24.87
2017-10-30T18:47:07.585Z,25.48
2017-10-30T18:49:35.166Z,23.90
2017-10-30T18:52:02.770Z,25.08
2017-10-30T18:54:31.172Z,35.22
2017-10-30T18:56:58.822Z,37.28
2017-10-30T18:59:26.408Z,24.77
2017-10-30T19:01:54.046Z,30.88
2017-10-30T19:04:21.687Z,27.13
2017-10-30T19:06:50.038Z,27.08
2017-10-30T19:09:17.674Z,26.50
2017-10-30T19:11:45.253Z,30.42
2017-10-30T19:14:12.830Z,22.67
2017-10-30T19:16:40.507Z,24.35
2017-10-30T19:19:08.858Z,26.52
2017-10-30T19:21:37.977Z,30.77
2017-10-30T19:24:06.454Z,20.45
2017-10-30T19:26:34.802Z,31.17
2017-10-30T19:29:02.645Z,33.17
2017-10-30T19:31:30.273Z,30.33
2017-10-30T19:33:57.854Z,34.25
2017-10-30T19:36:25.523Z,26.65
2017-10-30T19:38:53.233Z,28.00
2017-10-30T19:41:21.613Z,28.62
2017-10-30T19:43:50.270Z,32.35
2017-10-30T19:46:17.871Z,24.75
2017-10-30T19:48:45.518Z,27.27
2017-10-30T19:51:13.910Z,21.98
2017-10-30T19:53:41.490Z,23.40
2017-10-30T19:56:09.106Z,14.98
2017-10-30T19:58:37.504Z,13.68
2017-10-30T20:01:05.151Z,21.37
2017-10-30T20:03:34.071Z,21.85
2017-10-30T20:06:07.783Z,17.85
2017-10-30T20:08:41.173Z,21.73
2017-10-30T20:11:14.458Z,19.20
2017-10-30T20:13:42.091Z,17.80
2017-10-30T20:16:10.621Z,22.02
2017-10-30T20:18:38.688Z,12.50
2017-10-30T20:21:06.894Z,16.37
2017-10-30T20:23:35.102Z,17.87
2017-10-30T20:26:02.722Z,21.80
2017-10-30T20:28:30.304Z,23.20
2017-10-30T20:30:58.686Z,14.70
2017-10-30T20:33:27.107Z,17.83
2017-10-30T20:35:54.689Z,14.93
2017-10-30T20:38:22.579Z,14.95
2017-10-30T20:40:50.965Z,15.43
2017-10-30T20:43:19.751Z,14.90
2017-10-30T20:45:48.336Z,16.62
2017-10-30T20:48:16.706Z,15.30
2017-10-30T20:50:45.058Z,16.55
2017-10-30T20:53:12.666Z,19.65
2017-10-30T20:55:40.251Z,18.90
2017-10-30T20:58:07.865Z,17.45
2017-10-30T21:00:36.496Z,22.37
2017-10-30T21:03:04.082Z,14.90
2017-10-30T21:05:31.690Z,14.65
2017-10-30T21:07:59.267Z,13.98
2017-10-30T21:10:26.841Z,17.55
2017-10-30T21:12:54.544Z,14.43
2017-10-30T21:15:22.881Z,14.32
2017-10-30T21:17:50.478Z,13.77
2017-10-30T21:20:18.946Z,13.77
2017-10-30T21:22:46.619Z,20.92
2017-10-30T21:25:14.962Z,13.77
2017-10-30T21:27:42.656Z,20.27
2017-10-30T21:30:11.130Z,11.52
2017-10-30T21:32:39.631Z,15.60
2017-10-30T21:35:07.206Z,14.55
2017-10-30T21:37:34.784Z,16.12
2017-10-30T21:40:02.479Z,18.15
2017-10-30T21:42:30.058Z,17.08
2017-10-30T21:44:58.426Z,13.02
2017-10-30T21:47:26.822Z,17.67
2017-10-30T21:49:54.401Z,14.63
2017-10-30T21:52:21.978Z,10.57
2017-10-30T21:54:49.594Z,16.80
2017-10-30T21:57:17.242Z,25.27
2017-10-30T21:59:45.589Z,29.15
2017-10-30T22:02:13.285Z,21.27
2017-10-30T22:04:41.626Z,23.25
2017-10-30T22:07:09.215Z,22.20
2017-10-30T22:09:37.881Z,16.10
2017-10-30T22:12:05.562Z,27.77
2017-10-30T22:14:33.938Z,20.73
2017-10-30T22:17:02.306Z,12.23
2017-10-30T22:19:30.655Z,14.25
2017-10-30T22:21:58.298Z,14.65
2017-10-30T22:24:25.914Z,14.27
2017-10-30T22:26:54.286Z,20.02
2017-10-30T22:29:22.654Z,12.30
2017-10-30T22:31:50.234Z,20.73
2017-10-30T22:34:18.790Z,25.83
2017-10-30T22:36:46.374Z,22.52
2017-10-30T22:39:14.718Z,12.73
2017-10-30T22:41:42.398Z,17.45
2017-10-30T22:44:10.885Z,16.73
2017-10-30T22:46:39.235Z,15.05
2017-10-30T22:49:06.918Z,17.55
2017-10-30T22:51:35.253Z,15.63
2017-10-30T22:54:02.858Z,14.27
2017-10-30T22:56:31.226Z,20.75
2017-10-30T22:58:59.569Z,16.70
2017-10-30T23:01:27.193Z,23.25
2017-10-30T23:03:54.770Z,17.05
2017-10-30T23:06:22.349Z,14.75
2017-10-30T23:08:49.993Z,15.32
2017-10-30T23:11:17.570Z,15.23
2017-10-30T23:13:45.914Z,17.15
2017-10-30T23:16:13.552Z,10.02
2017-10-30T23:18:41.893Z,20.15
2017-10-30T23:21:09.465Z,11.73
2017-10-30T23:23:37.129Z,12.80
2017-10-30T23:26:05.469Z,22.05
2017-10-30T23:28:33.045Z,17.12
